Varina, Virginia
Current Conditions -  °F | °C
As of 4:54 PM on Wednesday 28 Jan 2015 (Local Time) from KRIC Reporting Station
Few Clouds Few Clouds  
Wind Chill: 32°   Ceiling: Unl
Heat Index: 41°   Visibility: 10mi
Dew Point:   Wind: 17mph
Humidity: 20%   Direction: 340°NNW
Pressure: 30.24"   Gusts: NA
Location:  37.4458°N, 77.3237°W
Report Text: KRIC 282154Z 34015KT 10SM FEW300 05/M17 A3024 RMK AO2 SLP246 T00501167
Loading
Personal Weather Stations






























Interactive Weather Map New forecast layout! Learn more

10-Day Weather Forecast

Advertisements
Track Severe Weather on mobile